createdAt,value
2023-04-02T00:03:10.190Z,7.75
2023-04-02T00:09:10.077Z,7.74
2023-04-02T00:15:10.125Z,7.94
2023-04-02T00:21:10.077Z,7.86
2023-04-02T00:27:10.071Z,7.48
2023-04-02T00:33:10.136Z,7.43
2023-04-02T00:39:10.300Z,7.50
2023-04-02T00:45:10.062Z,7.88
2023-04-02T00:51:10.062Z,7.91
2023-04-02T00:57:10.125Z,7.86
2023-04-02T01:03:10.116Z,7.88
2023-04-02T01:09:10.074Z,7.90
2023-04-02T01:15:10.099Z,7.72
2023-04-02T01:21:10.057Z,7.78
2023-04-02T01:27:10.254Z,7.74
2023-04-02T01:33:10.135Z,7.67
2023-04-02T01:39:10.084Z,7.63
2023-04-02T01:45:10.088Z,7.68
2023-04-02T01:51:10.111Z,7.32
2023-04-02T01:57:10.132Z,7.03
2023-04-02T02:03:12.341Z,6.89
2023-04-02T02:09:10.086Z,7.15
2023-04-02T02:15:10.067Z,7.22
2023-04-02T02:21:10.055Z,7.13
2023-04-02T02:27:10.282Z,7.09
2023-04-02T02:33:10.095Z,7.16
2023-04-02T02:39:10.090Z,6.97
2023-04-02T02:45:10.074Z,6.94
2023-04-02T02:51:10.045Z,6.87
2023-04-02T02:57:10.107Z,6.65
2023-04-02T03:03:10.173Z,6.40
2023-04-02T03:27:10.077Z,6.04
2023-04-02T03:33:10.117Z,5.95
2023-04-02T03:39:10.071Z,6.00
2023-04-02T03:45:10.475Z,6.28
2023-04-02T03:57:10.102Z,6.34
2023-04-02T04:03:14.288Z,6.39
2023-04-02T04:15:10.093Z,6.00
2023-04-02T04:21:10.073Z,5.75
2023-04-02T04:27:10.103Z,5.90
2023-04-02T04:33:10.135Z,6.16
2023-04-02T04:39:10.059Z,5.98
2023-04-02T04:45:10.076Z,5.94
2023-04-02T04:51:10.055Z,6.06
2023-04-02T04:57:10.138Z,5.94
2023-04-02T05:03:10.049Z,5.91
2023-04-02T05:09:11.803Z,6.14
2023-04-02T05:15:10.249Z,6.09
2023-04-02T05:21:10.363Z,6.14
2023-04-02T05:27:10.071Z,5.91
2023-04-02T05:33:10.084Z,5.79
2023-04-02T05:39:10.056Z,5.85
2023-04-02T05:45:10.052Z,5.79
2023-04-02T05:51:10.050Z,5.88
2023-04-02T05:57:11.943Z,5.90
2023-04-02T06:03:10.229Z,6.13
2023-04-02T06:09:10.079Z,6.28
2023-04-02T06:15:10.061Z,6.42
2023-04-02T06:21:10.058Z,6.57
2023-04-02T06:27:10.129Z,6.75
2023-04-02T06:33:10.063Z,6.88
2023-04-02T06:39:10.095Z,6.95
2023-04-02T06:45:10.174Z,6.98
2023-04-02T06:51:10.098Z,7.18
2023-04-02T06:57:10.128Z,7.19
2023-04-02T07:03:10.077Z,7.40
2023-04-02T07:09:10.069Z,7.44
2023-04-02T07:15:10.071Z,7.80
2023-04-02T07:27:10.529Z,8.63
2023-04-02T07:33:10.108Z,9.19
2023-04-02T07:39:10.096Z,10.01
2023-04-02T07:45:10.073Z,10.59
2023-04-02T07:51:10.046Z,10.80
2023-04-02T07:57:12.587Z,11.12
2023-04-02T08:03:10.191Z,11.02
2023-04-02T08:09:10.063Z,11.08
2023-04-02T08:15:10.065Z,11.58
2023-04-02T08:21:10.139Z,11.52
2023-04-02T08:27:10.440Z,11.85
2023-04-02T08:33:10.110Z,11.95
2023-04-02T08:39:10.103Z,11.55
2023-04-02T08:51:10.550Z,11.94
2023-04-02T09:03:11.264Z,11.65
2023-04-02T09:15:11.536Z,12.53
2023-04-02T09:27:11.905Z,12.74
2023-04-02T09:39:12.421Z,12.53
2023-04-02T09:51:12.956Z,12.70
2023-04-02T10:03:13.318Z,11.71
2023-04-02T10:15:13.716Z,10.89
2023-04-02T10:27:14.125Z,10.43
2023-04-02T10:39:14.628Z,10.97
2023-04-02T10:51:15.066Z,11.74
2023-04-02T11:03:15.678Z,11.77
2023-04-02T11:15:15.969Z,11.30
2023-04-02T11:27:16.438Z,11.09
2023-04-02T11:39:17.714Z,10.40
2023-04-02T11:51:18.846Z,10.20
2023-04-02T12:03:17.812Z,10.93
2023-04-02T12:15:20.450Z,10.99
2023-04-02T12:27:18.686Z,10.96
2023-04-02T12:39:19.192Z,11.07
2023-04-02T12:51:19.576Z,11.25
2023-04-02T13:03:20.142Z,10.86
2023-04-02T13:15:23.176Z,10.74
2023-04-02T13:27:21.083Z,10.95
2023-04-02T13:39:21.427Z,10.83
2023-04-02T13:51:24.551Z,10.83
2023-04-02T14:03:22.351Z,10.76
2023-04-02T14:15:22.837Z,10.59
2023-04-02T14:27:23.297Z,9.43
2023-04-02T14:39:23.686Z,8.74
2023-04-02T14:51:24.158Z,8.88
2023-04-02T15:03:24.690Z,8.97
2023-04-02T15:15:36.985Z,8.51
2023-04-02T15:27:26.079Z,8.31
2023-04-02T15:39:26.018Z,8.05
2023-04-02T15:51:26.466Z,7.65
2023-04-02T16:03:26.799Z,7.86
2023-04-02T16:15:27.293Z,7.56
2023-04-02T16:27:27.729Z,7.67
2023-04-02T16:39:28.235Z,7.61
2023-04-02T16:51:28.638Z,7.54
2023-04-02T17:03:29.236Z,7.55
2023-04-02T17:15:29.539Z,7.58
2023-04-02T17:27:30.013Z,7.56
2023-04-02T17:39:30.433Z,7.33
2023-04-02T17:51:31.005Z,7.00
2023-04-02T18:15:31.833Z,6.62
2023-04-02T18:27:34.958Z,6.43
2023-04-02T18:39:32.779Z,6.49
2023-04-02T18:51:33.275Z,6.32
2023-04-02T19:03:33.729Z,6.04
2023-04-02T19:15:34.580Z,5.89
2023-04-02T19:27:34.535Z,5.47
2023-04-02T19:39:34.985Z,5.27
2023-04-02T19:51:35.471Z,5.12
2023-04-02T20:03:38.260Z,4.98
2023-04-02T20:15:36.593Z,4.93
2023-04-02T20:27:36.812Z,4.81
2023-04-02T20:39:37.271Z,4.68
2023-04-02T20:51:37.769Z,4.51
2023-04-02T21:03:38.185Z,4.44
2023-04-02T21:15:38.732Z,4.55
2023-04-02T21:27:39.237Z,4.26
2023-04-02T21:39:39.576Z,4.21
2023-04-02T21:51:40.006Z,4.16
2023-04-02T22:03:42.722Z,4.12
2023-04-02T22:15:40.948Z,4.14
2023-04-02T22:27:41.334Z,4.17
2023-04-02T22:39:41.831Z,4.25
2023-04-02T22:51:43.113Z,4.24
2023-04-02T23:03:42.746Z,4.23
2023-04-02T23:15:43.140Z,4.23
2023-04-02T23:27:43.607Z,4.22
2023-04-02T23:39:44.049Z,4.21
2023-04-02T23:51:44.502Z,4.20
